EW3084 Weather Reports


Display with metric or nautical units.
time (UTC)temp
F
wind
direction
speed
MPH
gust
MPH
rain 1hr
in
rain 24hr
in
rain mn
in
humidity
%
barometer
mb
20220926022204 46 0 0.0 0.0 0.00 0.07 0.00 100
20220926021103 46 0 0.0 0.0 0.00 0.07 0.00 100
20220926020003 46 0 0.0 0.0 0.00 0.07 0.00 100
20220926015503 46 0 0.0 0.0 0.00 0.07 0.00 100
20220926014424 46 0 0.0 0.0 0.00 0.07 0.00 100
20220926013347 46 0 0.0 0.0 0.00 0.07 0.00 100
20220926012224 46 0 0.0 0.0 0.00 0.07 0.00 100
20220926011124 46 0 0.0 0.0 0.00 0.07 0.00 100
20220926010025 46 0 0.0 0.0 0.00 0.07 0.00 100
20220926005526 46 0 0.0 0.0 0.00 0.07 0.00 100
20220926004405 46 0 0.0 0.0 0.00 0.07 0.00 100
20220926003305 46 0 0.0 0.0 0.00 0.07 0.00 100
20220926002205 46 0 0.0 0.0 0.00 0.07 0.00 100
20220926001127 46 0 0.0 0.0 0.00 0.07 0.00 100
20220926000005 46 0 0.0 0.0 0.00 0.07 0.00 100
20220925235526 46 0 0.0 0.0 0.00 0.07 0.00 100
20220925234405 45 0 0.0 0.0 0.00 0.07 0.00 100
20220925233326 45 0 0.0 0.0 0.00 0.07 0.00 100
20220925232205 44 0 0.0 0.0 0.00 0.07 0.00 100
20220925231105 44 0 0.0 0.0 0.00 0.07 0.00 100
20220925230029 45 0 0.0 0.0 0.00 0.07 0.00 100
20220925225505 45 0 0.0 0.0 0.00 0.07 0.00 100
20220925224405 45 0 0.0 0.0 0.00 0.07 0.00 100
20220925223326 45 0 0.0 0.0 0.00 0.07 0.00 100
20220925222205 45 0 0.0 0.0 0.00 0.07 0.00 100
20220925221105 45 0 0.0 0.0 0.00 0.07 0.00 100
20220925220006 45 0 0.0 0.0 0.00 0.07 0.00 100
20220925215505 45 0 0.0 0.0 0.00 0.07 0.07 100
20220925214404 46 0 0.0 0.0 0.00 0.07 0.07 100
20220925213304 45 0 0.0 0.0 0.00 0.07 0.07 100
20220925212210 46 0 0.0 0.0 0.00 0.07 0.07 100
20220925211105 46 0 0.0 0.0 0.00 0.07 0.07 100
20220925210005 45 0 0.0 0.0 0.00 0.07 0.07 100
20220925205505 46 0 0.0 0.0 0.00 0.07 0.07 100
20220925204404 46 0 0.0 0.0 0.00 0.07 0.07 100
20220925202204 46 0 0.0 0.0 0.00 0.07 0.07 100
20220925201105 47 0 0.0 0.0 0.00 0.07 0.07 100
20220925200005 47 0 0.0 0.0 0.00 0.07 0.07 100
20220925195525 47 0 0.0 0.0 0.00 0.07 0.07 100
20220925194405 48 0 0.0 0.0 0.00 0.07 0.07 100
20220925193304 48 0 0.0 0.0 0.00 0.07 0.07 100
20220925192204 47 0 0.0 0.0 0.00 0.07 0.07 100
20220925191104 47 0 0.0 0.0 0.00 0.07 0.07 100
20220925190005 47 0 0.0 0.0 0.00 0.07 0.07 100
20220925185505 47 0 0.0 0.0 0.00 0.07 0.07 100
20220925184425 48 0 0.0 0.0 0.00 0.07 0.07 100
20220925183304 48 0 0.0 0.0 0.00 0.07 0.07 100
20220925182204 48 0 0.0 0.0 0.00 0.07 0.07 100
20220925181104 49 0 0.0 0.0 0.00 0.07 0.07 100
20220925180025 49 0 0.0 0.0 0.00 0.07 0.07 100
20220925175525 49 0 0.0 0.0 0.00 0.07 0.07 100
20220925174405 50 0 0.0 0.0 0.00 0.07 0.07 100
20220925173304 50 0 0.0 0.0 0.00 0.07 0.07 100
20220925172225 50 0 0.0 0.0 0.00 0.07 0.07 100
20220925171104 50 0 0.0 0.0 0.00 0.07 0.07 100
20220925170004 50 0 0.0 0.0 0.00 0.07 0.07 100
20220925165525 50 0 0.0 0.0 0.00 0.07 0.07 100
20220925164404 51 0 0.0 0.0 0.00 0.07 0.07 100
20220925163325 51 0 0.0 0.0 0.01 0.07 0.07 100
20220925162205 52 0 0.0 0.0 0.05 0.07 0.07 100
20220925161106 52 0 0.0 0.0 0.07 0.07 0.07 99
20220925160004 52 0 0.0 0.0 0.07 0.07 0.07 99
20220925155504 52 0 0.0 0.0 0.07 0.07 0.07 98
20220925154404 52 274 0.0 4.0 0.07 0.07 0.07 99
20220925153304 52 270 1.0 7.0 0.06 0.06 0.06 93
20220925152204 54 265 3.0 12.0 0.02 0.02 0.02 92
20220925151125 55 0 0.0 0.0 0.00 0.00 0.00 91
20220925150025 55 167 0.0 5.0 0.00 0.00 0.00 89
20220925145504 55 158 0.0 3.0 0.00 0.00 0.00 88
20220925144404 55 158 0.0 3.0 0.00 0.00 0.00 87
20220925143325 56 137 1.0 7.0 0.00 0.00 0.00 86
20220925142204 56 140 0.0 5.0 0.00 0.00 0.00 86
20220925141146 56 156 0.0 5.0 0.00 0.00 0.00 84
20220925140046 57 155 0.0 6.0 0.00 0.00 0.00 83
20220925135525 57 164 1.0 7.0 0.00 0.00 0.00 83
20220925134425 57 210 0.0 5.0 0.00 0.00 0.00 82
20220925133325 56 172 0.0 5.0 0.00 0.00 0.00 85
20220925132225 56 203 0.0 4.0 0.00 0.00 0.00 86
20220925131104 56 0 0.0 0.0 0.00 0.00 0.00 86
20220925130004 56 0 0.0 0.0 0.00 0.00 0.00 85
20220925125504 56 0 0.0 0.0 0.00 0.00 0.00 84
20220925124425 56 97 0.0 5.0 0.00 0.00 0.00 84
20220925123325 56 91 1.0 6.0 0.00 0.00 0.00 84
20220925122204 56 111 0.0 3.0 0.00 0.00 0.00 83
20220925121104 57 205 0.0 6.0 0.00 0.00 0.00 82
20220925120007 57 178 2.0 7.0 0.00 0.00 0.00 81
20220925115504 57 174 2.0 7.0 0.00 0.00 0.00 81
20220925114404 56 83 1.0 5.0 0.00 0.00 0.00 86
20220925113305 55 148 1.0 4.0 0.00 0.00 0.00 88
20220925112204 55 168 1.0 5.0 0.00 0.00 0.00 88
20220925111104 54 159 0.0 2.0 0.00 0.00 0.00 89
20220925110007 54 0 0.0 0.0 0.00 0.00 0.00 89
20220925105525 54 169 0.0 3.0 0.00 0.00 0.00 89
20220925104425 54 169 0.0 4.0 0.00 0.00 0.00 90
20220925103309 54 165 1.0 4.0 0.00 0.00 0.00 90
20220925102204 53 93 0.0 3.0 0.00 0.00 0.00 95
20220925101146 53 175 0.0 4.0 0.00 0.00 0.00 95
20220925100027 52 181 0.0 1.0 0.00 0.00 0.00 96
20220925095504 52 0 0.0 0.0 0.00 0.00 0.00 96
20220925094404 52 171 0.0 3.0 0.00 0.00 0.00 97
20220925093304 52 0 0.0 0.0 0.00 0.00 0.00 98
20220925092204 51 0 0.0 0.0 0.00 0.00 0.00 99
20220925091104 51 174 0.0 1.0 0.00 0.00 0.00 99
20220925090032 50 0 0.0 0.0 0.00 0.00 0.00 100
20220925085505 50 0 0.0 0.0 0.00 0.00 0.00 100
20220925084425 50 0 0.0 0.0 0.00 0.00 0.00 100
20220925083308 50 171 0.0 1.0 0.00 0.00 0.00 100
20220925082206 49 0 0.0 0.0 0.00 0.00 0.00 100
20220925081146 49 0 0.0 0.0 0.00 0.00 0.00 100
20220925080010 49 0 0.0 0.0 0.00 0.00 0.00 100
20220925075504 49 0 0.0 0.0 0.00 0.00 0.00 100
20220925073303 48 0 0.0 0.0 0.00 0.00 0.00 100
20220925072243 48 0 0.0 0.0 0.00 0.00 0.00 100
20220925071104 48 0 0.0 0.0 0.00 0.00 0.00 100
20220925070008 48 0 0.0 0.0 0.00 0.00 0.00 100
20220925065505 48 0 0.0 0.0 0.00 0.00 0.00 100
20220925064425 48 0 0.0 0.0 0.00 0.00 0.00 100
20220925063304 47 0 0.0 0.0 0.00 0.00 0.00 100
20220925062229 47 0 0.0 0.0 0.00 0.00 0.00 100
20220925061104 47 0 0.0 0.0 0.00 0.00 0.00 100
20220925060005 47 0 0.0 0.0 0.00 0.00 0.00 100
20220925055505 47 0 0.0 0.0 0.00 0.00 0.00 100
20220925054405 46 0 0.0 0.0 0.00 0.00 0.00 100
20220925053304 46 0 0.0 0.0 0.00 0.00 0.00 100
20220925051104 46 0 0.0 0.0 0.00 0.00 0.00 100
20220925050025 46 0 0.0 0.0 0.00 0.00 0.00 100
20220925045524 46 0 0.0 0.0 0.00 0.00 0.00 100
20220925044403 46 0 0.0 0.0 0.00 0.00 0.00 100
20220925043325 46 0 0.0 0.0 0.00 0.00 0.00 100
20220925041146 46 0 0.0 0.0 0.00 0.00 0.00 100
20220925040025 46 0 0.0 0.0 0.00 0.00 0.00 100
20220925035524 46 0 0.0 0.0 0.00 0.00 0.00 100
20220925034424 46 0 0.0 0.0 0.00 0.00 0.00 100
20220925033303 46 0 0.0 0.0 0.00 0.00 0.00 100
20220925032203 46 0 0.0 0.0 0.00 0.00 0.00 100
20220925031103 47 0 0.0 0.0 0.00 0.00 0.00 100
20220925030045 47 0 0.0 0.0 0.00 0.00 0.00 100
20220925025503 47 0 0.0 0.0 0.00 0.00 0.00 100
20220925024403 47 0 0.0 0.0 0.00 0.00 0.00 100
20220925023328 47 0 0.0 0.0 0.00 0.00 0.00 100